Time;durP1;ratioP1;P1;durP2;ratioP2;P2;SDS_P1;SDS_P2;PMS_P1;PMS_P2;Temp;Humidity;BMP_temperature;BMP_pressure;BME280_temperature;BME280_humidity;BME280_pressure;Samples;Min_cycle;Max_cycle;Signal;HPM_P1;HPM_P2
2022/01/15 00:04:18;;;;;;;4.90;1.40;;;22.00;65.30;;;;;;215885;1293;26441;-59
2022/01/15 00:09:28;;;;;;;3.30;1.70;;;22.00;64.80;;;;;;215771;1293;22677;-58
2022/01/15 00:14:39;;;;;;;4.40;1.70;;;22.40;64.50;;;;;;215375;1293;25885;-60
2022/01/15 00:19:46;;;;;;;4.80;1.60;;;22.70;63.30;;;;;;215465;1292;22570;-59
2022/01/15 00:24:49;;;;;;;2.90;1.40;;;22.90;62.30;;;;;;215564;1293;22618;-59
2022/01/15 00:29:55;;;;;;;3.70;1.70;;;23.10;61.80;;;;;;215368;1293;22638;-58
2022/01/15 00:35:00;;;;;;;5.10;1.60;;;23.20;61.40;;;;;;215321;1293;24303;-58
2022/01/15 00:40:10;;;;;;;4.80;1.50;;;23.30;60.70;;;;;;215566;1293;22567;-60
2022/01/15 00:45:21;;;;;;;3.40;1.50;;;23.40;60.40;;;;;;215536;1293;22608;-59
2022/01/15 00:50:26;;;;;;;3.60;1.70;;;23.50;60.10;;;;;;215572;1292;25454;-59
2022/01/15 00:55:30;;;;;;;3.00;1.40;;;23.50;60.10;;;;;;215494;1293;24360;-59
2022/01/15 01:00:38;;;;;;;4.50;1.60;;;23.60;59.60;;;;;;215640;1293;24375;-59
2022/01/15 01:05:42;;;;;;;4.20;1.70;;;23.60;59.40;;;;;;215790;1293;22595;-57
2022/01/15 01:26:39;;;;;;;4.80;1.80;;;23.60;58.50;;;;;;215511;1293;22591;-57
2022/01/15 01:32:02;;;;;;;4.50;1.70;;;23.50;58.70;;;;;;215541;1292;25626;-58
2022/01/15 01:37:16;;;;;;;4.00;1.60;;;23.50;58.70;;;;;;215600;1293;22618;-59
2022/01/15 01:47:33;;;;;;;3.50;1.70;;;23.50;58.90;;;;;;215462;1293;22654;-59
2022/01/15 01:52:37;;;;;;;3.60;1.60;;;23.40;59.00;;;;;;215246;1293;22589;-57
2022/01/15 01:57:42;;;;;;;3.60;1.40;;;23.40;58.50;;;;;;215502;1293;24642;-58
2022/01/15 02:02:47;;;;;;;3.10;1.50;;;23.40;58.60;;;;;;215555;1293;22584;-58
2022/01/15 02:07:50;;;;;;;4.70;1.70;;;23.40;58.30;;;;;;215534;1293;22569;-58
2022/01/15 02:12:55;;;;;;;3.50;1.60;;;23.50;58.80;;;;;;215445;1293;23148;-59
2022/01/15 02:17:58;;;;;;;4.30;1.90;;;23.50;58.70;;;;;;215669;1293;22589;-59
2022/01/15 02:28:32;;;;;;;3.10;1.70;;;23.60;57.90;;;;;;215567;1293;22578;-60
2022/01/15 02:33:37;;;;;;;4.20;1.60;;;23.60;57.90;;;;;;215626;1293;24434;-59
2022/01/15 02:38:42;;;;;;;3.90;1.40;;;23.60;57.90;;;;;;215731;1292;24291;-59
2022/01/15 02:43:45;;;;;;;3.20;1.60;;;23.70;57.60;;;;;;215557;1293;23317;-59
2022/01/15 02:48:55;;;;;;;3.50;1.80;;;23.70;57.60;;;;;;215532;1292;22602;-60
2022/01/15 02:53:59;;;;;;;5.00;1.30;;;23.70;57.60;;;;;;215403;1293;22566;-60
2022/01/15 02:59:05;;;;;;;3.20;1.50;;;23.70;57.40;;;;;;215765;1293;22596;-59
2022/01/15 03:04:09;;;;;;;3.00;1.30;;;23.70;57.30;;;;;;215696;1291;22588;-59
2022/01/15 03:09:13;;;;;;;3.30;1.60;;;23.60;57.30;;;;;;215626;1293;22648;-58
2022/01/15 03:14:19;;;;;;;5.60;2.10;;;23.60;57.60;;;;;;215169;1293;23191;-59
2022/01/15 03:19:24;;;;;;;2.90;1.80;;;23.60;57.10;;;;;;215643;1293;22596;-59
2022/01/15 03:24:29;;;;;;;4.30;2.10;;;23.60;57.10;;;;;;215461;1293;26647;-57
2022/01/15 03:29:33;;;;;;;4.60;1.60;;;23.60;57.40;;;;;;215514;1293;23188;-55
2022/01/15 03:34:36;;;;;;;3.50;1.90;;;23.70;57.00;;;;;;215585;1293;24463;-58
2022/01/15 03:39:41;;;;;;;3.40;1.70;;;23.70;57.30;;;;;;215501;1293;22604;-59
2022/01/15 03:44:49;;;;;;;2.40;1.40;;;23.70;56.80;;;;;;215811;1293;22589;-59
2022/01/15 03:49:56;;;;;;;3.70;1.40;;;23.80;56.50;;;;;;215633;1292;24335;-58
2022/01/15 03:55:03;;;;;;;4.00;1.70;;;23.80;56.40;;;;;;215584;1293;22711;-59
2022/01/15 04:00:09;;;;;;;3.50;1.80;;;23.80;56.70;;;;;;215569;1293;24318;-59
2022/01/15 04:05:14;;;;;;;3.90;1.70;;;23.80;56.20;;;;;;215604;1293;22794;-58
2022/01/15 04:10:18;;;;;;;3.60;1.80;;;23.80;56.50;;;;;;215543;1293;25457;-57
2022/01/15 04:15:22;;;;;;;3.50;1.70;;;23.70;56.60;;;;;;215628;1292;24266;-58
2022/01/15 04:20:25;;;;;;;4.50;1.70;;;23.70;56.10;;;;;;215322;1293;22634;-58
2022/01/15 04:25:29;;;;;;;4.00;1.60;;;23.70;56.20;;;;;;215520;1293;22591;-58
2022/01/15 04:30:32;;;;;;;3.80;1.90;;;23.70;56.00;;;;;;215332;1293;24276;-58
2022/01/15 04:35:36;;;;;;;3.40;1.60;;;23.80;55.90;;;;;;215307;1293;24364;-60
2022/01/15 04:40:39;;;;;;;3.00;1.40;;;23.70;55.80;;;;;;215492;1293;25609;-59
2022/01/15 04:45:43;;;;;;;4.00;1.70;;;23.80;55.70;;;;;;215412;1293;22576;-63
2022/01/15 04:50:47;;;;;;;3.60;1.70;;;23.80;55.70;;;;;;215720;1293;25643;-59
2022/01/15 04:55:50;;;;;;;3.80;2.00;;;23.80;55.60;;;;;;215455;1293;23088;-63
2022/01/15 05:00:54;;;;;;;3.90;1.80;;;23.80;55.60;;;;;;215760;1293;24298;-58
2022/01/15 05:05:57;;;;;;;5.10;1.60;;;23.80;55.50;;;;;;215516;1293;22879;-57
2022/01/15 05:11:11;;;;;;;3.30;1.70;;;23.80;55.80;;;;;;215321;1293;25522;-60
2022/01/15 05:16:15;;;;;;;4.30;1.70;;;23.80;55.50;;;;;;215478;1293;22615;-58
2022/01/15 05:21:18;;;;;;;4.40;1.70;;;23.70;55.60;;;;;;215276;1293;27671;-58
2022/01/15 05:26:22;;;;;;;3.20;1.50;;;23.80;55.50;;;;;;215323;1293;24358;-58
2022/01/15 05:31:26;;;;;;;2.70;1.50;;;23.80;55.50;;;;;;215332;1293;23289;-58
2022/01/15 05:36:30;;;;;;;5.10;1.70;;;23.80;55.40;;;;;;215151;1293;23797;-59
2022/01/15 05:41:34;;;;;;;3.20;1.50;;;23.80;55.30;;;;;;215251;1293;22721;-59
2022/01/15 05:46:38;;;;;;;7.00;2.30;;;23.80;55.10;;;;;;215502;1293;25258;-58
2022/01/15 05:51:44;;;;;;;3.00;1.60;;;23.80;55.00;;;;;;215402;1293;25412;-58
2022/01/15 05:56:48;;;;;;;3.00;1.70;;;23.80;55.10;;;;;;214947;1293;330951;-58
2022/01/15 06:01:51;;;;;;;4.40;1.90;;;23.80;55.00;;;;;;215290;1293;24346;-59
2022/01/15 06:06:55;;;;;;;3.40;2.00;;;23.80;54.80;;;;;;215343;1293;22564;-59
2022/01/15 06:12:00;;;;;;;3.40;1.50;;;23.80;54.80;;;;;;215474;1293;22646;-58
2022/01/15 06:17:04;;;;;;;3.10;1.70;;;23.80;54.80;;;;;;215337;1293;22579;-60
2022/01/15 06:22:07;;;;;;;6.00;1.90;;;23.80;54.70;;;;;;215289;1293;24339;-58
2022/01/15 06:27:11;;;;;;;3.50;1.70;;;23.80;54.60;;;;;;215323;1293;22589;-61
2022/01/15 06:32:15;;;;;;;3.10;1.70;;;23.80;54.60;;;;;;215553;1293;22602;-58
2022/01/15 06:37:19;;;;;;;4.80;1.80;;;23.80;54.60;;;;;;215344;1293;22674;-59
2022/01/15 06:42:22;;;;;;;2.50;1.60;;;23.80;54.60;;;;;;215511;1293;25469;-59
2022/01/15 06:47:26;;;;;;;4.30;1.60;;;23.80;54.60;;;;;;215372;1293;23194;-57
2022/01/15 06:52:38;;;;;;;5.30;1.80;;;23.80;54.60;;;;;;215343;1293;25558;-58
2022/01/15 06:57:43;;;;;;;4.00;1.90;;;23.80;54.40;;;;;;215274;1293;22659;-58
2022/01/15 07:02:48;;;;;;;4.50;1.60;;;23.80;54.30;;;;;;215557;1293;22586;-58
2022/01/15 07:07:52;;;;;;;4.00;1.60;;;23.90;54.40;;;;;;215543;1293;22592;-58
2022/01/15 07:12:56;;;;;;;3.20;1.70;;;23.90;54.30;;;;;;215354;1293;22615;-59
2022/01/15 07:17:59;;;;;;;4.30;1.70;;;23.90;54.30;;;;;;215325;1293;24272;-59
2022/01/15 07:23:03;;;;;;;3.00;1.70;;;23.90;54.20;;;;;;215439;1293;22599;-60
2022/01/15 07:28:06;;;;;;;3.30;1.70;;;23.90;54.30;;;;;;215181;1293;24625;-59
2022/01/15 07:33:10;;;;;;;3.60;1.80;;;23.80;54.30;;;;;;215325;1293;25630;-57
2022/01/15 07:38:16;;;;;;;5.40;1.90;;;23.90;54.40;;;;;;215393;1293;22580;-59
2022/01/15 07:43:19;;;;;;;4.30;1.60;;;23.80;54.30;;;;;;215306;1293;24272;-58
2022/01/15 07:48:23;;;;;;;4.30;2.00;;;23.90;54.30;;;;;;215274;1293;22599;-58
2022/01/15 07:53:31;;;;;;;6.30;1.90;;;23.90;54.30;;;;;;215239;1293;22849;-59
2022/01/15 07:58:35;;;;;;;6.00;1.90;;;23.90;54.70;;;;;;215384;1293;25673;-58
2022/01/15 08:03:40;;;;;;;7.60;1.80;;;24.00;54.20;;;;;;215384;1293;22601;-59
2022/01/15 08:08:44;;;;;;;4.90;1.70;;;24.00;54.40;;;;;;215016;1293;24306;-60
2022/01/15 08:13:47;;;;;;;4.50;2.10;;;23.90;54.60;;;;;;215122;1293;22718;-59
2022/01/15 08:18:53;;;;;;;3.60;2.00;;;23.80;55.10;;;;;;215211;1293;22564;-59
2022/01/15 08:23:56;;;;;;;6.30;2.30;;;23.70;55.20;;;;;;214890;1293;25490;-61
2022/01/15 08:29:00;;;;;;;8.60;2.10;;;23.60;55.70;;;;;;214842;1296;28104;-58
2022/01/15 08:34:04;;;;;;;3.40;2.00;;;23.50;55.10;;;;;;215306;1293;22651;-60
2022/01/15 08:39:09;;;;;;;6.70;2.10;;;23.50;55.00;;;;;;214864;1293;24269;-59
2022/01/15 08:44:25;;;;;;;10.40;2.50;;;23.40;55.30;;;;;;214888;1293;22583;-60
2022/01/15 08:49:29;;;;;;;14.30;2.70;;;23.40;55.40;;;;;;214905;1293;22584;-59
2022/01/15 08:54:43;;;;;;;8.40;2.50;;;23.30;55.90;;;;;;214668;1293;22615;-59
2022/01/15 08:59:46;;;;;;;11.00;3.00;;;23.30;55.90;;;;;;215215;1293;25622;-59
2022/01/15 09:04:53;;;;;;;16.10;3.00;;;23.20;56.30;;;;;;214513;1296;22654;-59
2022/01/15 09:10:02;;;;;;;8.90;2.90;;;23.10;57.00;;;;;;215369;1293;22604;-58
2022/01/15 09:15:14;;;;;;;7.60;2.80;;;23.10;56.90;;;;;;214680;1295;22573;-59
2022/01/15 09:20:21;;;;;;;9.30;2.90;;;23.00;56.70;;;;;;215050;1295;25616;-59
2022/01/15 09:25:32;;;;;;;9.50;3.00;;;23.00;56.70;;;;;;214913;1296;24259;-58
2022/01/15 09:30:42;;;;;;;7.30;2.90;;;23.00;56.70;;;;;;214896;1293;22808;-59
2022/01/15 09:35:47;;;;;;;10.00;3.10;;;22.90;56.60;;;;;;214824;1296;22612;-59
2022/01/15 09:41:00;;;;;;;10.40;2.80;;;22.80;56.20;;;;;;214919;1293;22584;-59
2022/01/15 09:46:11;;;;;;;7.80;3.20;;;22.80;56.20;;;;;;214855;1296;25493;-58
2022/01/15 09:51:16;;;;;;;15.10;3.80;;;22.60;53.10;;;;;;214864;1293;25393;-60
2022/01/15 09:56:19;;;;;;;9.30;3.30;;;22.40;51.90;;;;;;215109;1293;25253;-58
2022/01/15 10:01:32;;;;;;;11.50;3.80;;;22.40;52.70;;;;;;216167;1293;26219;-60
2022/01/15 10:07:10;;;;;;;12.30;3.90;;;22.40;52.60;;;;;;215091;1293;25303;-57
2022/01/15 10:12:28;;;;;;;9.00;3.70;;;22.40;52.60;;;;;;215553;1293;22605;-58
2022/01/15 10:17:35;;;;;;;11.80;3.80;;;22.30;52.60;;;;;;215134;1293;22819;-58
2022/01/15 10:22:50;;;;;;;10.90;3.90;;;22.50;52.40;;;;;;215429;1293;26680;-59
2022/01/15 10:27:55;;;;;;;12.60;4.20;;;22.60;51.20;;;;;;215176;1293;23057;-59
2022/01/15 10:33:09;;;;;;;11.40;4.60;;;22.90;50.80;;;;;;215176;1293;25525;-59
2022/01/15 10:38:24;;;;;;;13.70;4.10;;;23.20;51.00;;;;;;215052;1293;22708;-59
2022/01/15 10:43:36;;;;;;;11.10;4.20;;;23.30;50.20;;;;;;215283;1292;22672;-60
2022/01/15 10:48:42;;;;;;;12.20;4.70;;;23.40;50.30;;;;;;214985;1293;24020;-57
2022/01/15 10:54:03;;;;;;;12.30;4.30;;;23.50;49.80;;;;;;214809;1293;22994;-58
2022/01/15 10:59:08;;;;;;;19.80;5.10;;;23.50;49.80;;;;;;215111;1293;25541;-59
2022/01/15 11:04:12;;;;;;;13.30;4.40;;;23.60;49.10;;;;;;214710;1293;24665;-58
2022/01/15 11:09:15;;;;;;;16.20;5.00;;;23.60;49.60;;;;;;214808;1293;25539;-57
2022/01/15 11:14:19;;;;;;;13.50;4.80;;;23.40;47.60;;;;;;214933;1293;25556;-60
2022/01/15 11:19:25;;;;;;;20.40;5.20;;;23.50;46.20;;;;;;214734;1293;22651;-61
2022/01/15 11:24:29;;;;;;;13.80;4.50;;;23.50;46.60;;;;;;214969;1293;22595;-61
2022/01/15 11:29:36;;;;;;;12.30;4.40;;;23.60;47.30;;;;;;214847;1293;25522;-60
2022/01/15 11:34:44;;;;;;;14.50;4.30;;;23.60;47.80;;;;;;214924;1296;22654;-58
2022/01/15 11:39:52;;;;;;;19.00;4.30;;;23.60;48.50;;;;;;214762;1293;24451;-58
2022/01/15 11:44:58;;;;;;;14.20;5.70;;;23.70;48.50;;;;;;215015;1294;24269;-60
2022/01/15 11:50:20;;;;;;;14.10;4.80;;;23.80;50.50;;;;;;214648;1296;24577;-60
2022/01/15 11:55:27;;;;;;;22.70;5.20;;;23.60;51.60;;;;;;214718;1297;25546;-60
2022/01/15 12:00:44;;;;;;;14.00;4.90;;;23.60;52.10;;;;;;214979;1296;22996;-57
2022/01/15 12:05:59;;;;;;;11.40;4.30;;;23.60;52.20;;;;;;215286;1293;22573;-58
2022/01/15 12:11:04;;;;;;;10.30;4.40;;;23.80;52.40;;;;;;215105;1297;22601;-61
2022/01/15 12:16:27;;;;;;;12.20;4.90;;;23.70;52.90;;;;;;215225;1296;22603;-60
2022/01/15 12:22:08;;;;;;;12.90;4.30;;;23.60;53.00;;;;;;214893;1294;24336;-61
2022/01/15 12:27:25;;;;;;;15.10;4.40;;;23.80;52.90;;;;;;214683;1294;22569;-59
2022/01/15 12:32:40;;;;;;;9.60;4.40;;;23.80;52.50;;;;;;215222;1293;22605;-62
2022/01/15 12:38:16;;;;;;;11.40;3.80;;;23.80;53.00;;;;;;214624;1294;25431;-57
2022/01/15 12:43:36;;;;;;;14.10;4.10;;;23.90;53.10;;;;;;216886;1296;22745;-57
2022/01/15 12:48:45;;;;;;;12.90;4.50;;;24.00;52.80;;;;;;214886;1297;25398;-54
2022/01/15 12:53:58;;;;;;;11.40;3.80;;;24.00;54.60;;;;;;214966;1294;24426;-54
2022/01/15 12:59:06;;;;;;;9.20;3.80;;;23.80;55.90;;;;;;215425;1296;22599;-56
2022/01/15 13:04:12;;;;;;;12.20;3.90;;;23.60;55.10;;;;;;214595;1298;25367;-56
2022/01/15 13:09:17;;;;;;;12.20;4.00;;;23.40;55.80;;;;;;215221;1298;25947;-57
2022/01/15 13:14:21;;;;;;;13.10;4.60;;;23.30;56.00;;;;;;215030;1296;22586;-58
2022/01/15 13:19:37;;;;;;;14.70;4.40;;;23.30;54.80;;;;;;214991;1296;24269;-55
2022/01/15 13:24:45;;;;;;;16.30;5.30;;;23.30;56.00;;;;;;215055;1297;25672;-59
2022/01/15 13:30:04;;;;;;;23.90;4.70;;;23.30;55.70;;;;;;214897;1294;22930;-52
2022/01/15 13:35:12;;;;;;;12.10;5.00;;;23.10;55.10;;;;;;215051;1296;22652;-55
2022/01/15 13:40:27;;;;;;;15.80;5.10;;;23.20;57.30;;;;;;215322;1294;22595;-53
2022/01/15 13:45:38;;;;;;;11.50;4.00;;;23.20;55.80;;;;;;215365;1297;24269;-52
2022/01/15 13:57:29;;;;;;;15.40;4.30;;;23.20;55.60;;;;;;214914;1293;25629;-55
2022/01/15 14:02:50;;;;;;;13.40;4.10;;;23.10;55.30;;;;;;215198;1297;26364;-58
2022/01/15 14:07:54;;;;;;;12.90;4.20;;;22.90;56.50;;;;;;214936;1293;24272;-60
2022/01/15 14:13:06;;;;;;;13.30;4.30;;;22.90;56.80;;;;;;214835;1294;22685;-56
2022/01/15 14:18:15;;;;;;;10.50;4.00;;;22.80;57.10;;;;;;215037;1297;22576;-58
2022/01/15 14:23:55;;;;;;;17.00;4.70;;;22.70;57.80;;;;;;215077;1296;24269;-54
2022/01/15 14:29:33;;;;;;;10.40;4.20;;;22.60;58.50;;;;;;215090;1297;25438;-55
2022/01/15 14:34:56;;;;;;;10.70;3.90;;;22.50;59.00;;;;;;215189;1293;25400;-55
2022/01/15 14:40:15;;;;;;;9.70;4.20;;;22.50;58.80;;;;;;214891;1294;22618;-52
2022/01/15 14:45:46;;;;;;;13.70;5.00;;;22.40;58.60;;;;;;214939;1296;22673;-54
2022/01/15 14:51:15;;;;;;;23.10;11.70;;;22.40;59.30;;;;;;215354;1294;22583;-51
2022/01/15 14:56:50;;;;;;;;;;;;;;;;;;;;;
2022/01/15 15:02:19;;;;;;;18.50;10.30;;;22.20;59.80;;;;;;215043;1293;22572;-52
2022/01/15 15:07:33;;;;;;;18.90;9.50;;;22.20;58.10;;;;;;215773;1293;22583;-52
2022/01/15 15:12:40;;;;;;;17.00;9.80;;;22.10;58.90;;;;;;215152;1293;24320;-53
2022/01/15 15:17:47;;;;;;;16.60;9.40;;;22.20;57.70;;;;;;214963;1293;24810;-52
2022/01/15 15:22:53;;;;;;;21.70;10.40;;;22.40;57.00;;;;;;215419;1296;22577;-53
2022/01/15 15:27:59;;;;;;;19.90;10.30;;;22.70;56.70;;;;;;215324;1293;22823;-53
2022/01/15 15:33:03;;;;;;;19.20;10.20;;;22.90;56.40;;;;;;215372;1294;24455;-54
2022/01/15 15:38:07;;;;;;;23.90;10.70;;;22.90;56.40;;;;;;215108;1293;24269;-52
2022/01/15 15:43:18;;;;;;;21.50;11.30;;;23.00;56.50;;;;;;215308;1296;25646;-58
2022/01/15 15:48:27;;;;;;;30.50;11.00;;;23.00;56.40;;;;;;215290;1293;24253;-56
2022/01/15 15:53:38;;;;;;;19.70;10.50;;;23.00;56.40;;;;;;215115;1293;22657;-57
2022/01/15 15:59:02;;;;;;;;;;;23.00;55.50;;;;;;214982;1293;22776;-51
2022/01/15 16:04:10;;;;;;;25.20;10.60;;;23.10;55.70;;;;;;215096;1293;22582;-53
2022/01/15 16:09:14;;;;;;;19.40;10.20;;;23.10;55.10;;;;;;215228;1293;22594;-54
2022/01/15 16:14:20;;;;;;;26.80;10.50;;;22.80;53.20;;;;;;214861;1293;25493;-58
2022/01/15 16:19:27;;;;;;;23.10;10.80;;;22.60;52.40;;;;;;214908;1293;22604;-58
2022/01/15 16:24:31;;;;;;;17.70;9.30;;;22.90;51.50;;;;;;214940;1293;22676;-54
2022/01/15 16:29:35;;;;;;;23.40;9.80;;;23.20;51.40;;;;;;215112;1292;22599;-59
2022/01/15 16:34:46;;;;;;;22.10;10.70;;;23.40;52.00;;;;;;215214;1293;22621;-58
2022/01/15 16:39:53;;;;;;;20.80;9.30;;;23.00;47.50;;;;;;215187;1293;22596;-57
2022/01/15 16:44:58;;;;;;;18.70;8.90;;;23.10;49.50;;;;;;214438;1293;23923;-50
2022/01/15 16:50:09;;;;;;;16.40;9.00;;;23.20;49.20;;;;;;214960;1293;26753;-53
2022/01/15 16:55:21;;;;;;;18.70;10.10;;;23.20;49.20;;;;;;214769;1293;26849;-54
2022/01/15 17:00:26;;;;;;;16.80;10.00;;;23.30;49.10;;;;;;215097;1293;23219;-58
2022/01/15 17:05:43;;;;;;;17.50;8.80;;;23.40;49.00;;;;;;214621;1293;22666;-53
2022/01/15 17:10:56;;;;;;;15.60;9.20;;;23.40;49.00;;;;;;214938;1293;22577;-52
2022/01/15 17:16:06;;;;;;;15.20;8.60;;;23.40;49.20;;;;;;219872;1293;22580;-55
2022/01/15 17:21:11;;;;;;;16.30;9.00;;;23.40;49.60;;;;;;214956;1293;22572;-56
2022/01/15 17:26:18;;;;;;;14.40;8.40;;;23.30;49.00;;;;;;215533;1293;25446;-54
2022/01/15 17:31:23;;;;;;;14.70;8.40;;;23.30;49.40;;;;;;214954;1293;25473;-56
2022/01/15 17:36:29;;;;;;;19.00;8.60;;;23.30;49.60;;;;;;215182;1293;24501;-57
2022/01/15 17:41:32;;;;;;;18.40;9.40;;;23.30;49.90;;;;;;214786;1293;25263;-57
2022/01/15 17:46:39;;;;;;;14.00;7.70;;;23.30;51.20;;;;;;214889;1293;22608;-52
2022/01/15 17:51:51;;;;;;;17.70;8.50;;;23.20;51.40;;;;;;215166;1293;24285;-51
2022/01/15 17:56:56;;;;;;;15.20;7.90;;;23.20;52.10;;;;;;214924;1293;216607;-49
2022/01/15 18:02:01;;;;;;;18.00;8.00;;;22.90;52.40;;;;;;215064;1293;22587;-47
2022/01/15 18:07:14;;;;;;;18.90;8.50;;;23.00;52.20;;;;;;214917;1293;22603;-48
2022/01/15 18:12:27;;;;;;;20.00;8.90;;;23.00;51.80;;;;;;214974;1293;24283;-50
2022/01/15 18:17:33;;;;;;;17.70;8.90;;;22.90;51.90;;;;;;215186;1293;22770;-48
2022/01/15 18:22:38;;;;;;;17.60;8.50;;;22.80;53.70;;;;;;215075;1293;22816;-49
2022/01/15 18:27:53;;;;;;;20.40;8.90;;;22.70;54.40;;;;;;215033;1293;22719;-54
2022/01/15 18:33:14;;;;;;;29.10;13.40;;;22.70;54.80;;;;;;215148;1293;22776;-55
2022/01/15 18:38:17;;;;;;;;;;;22.50;54.80;;;;;;215164;1293;24088;-57
2022/01/15 18:43:21;;;;;;;18.60;9.30;;;22.60;54.60;;;;;;214997;1293;23039;-55
2022/01/15 18:48:26;;;;;;;22.60;9.40;;;22.50;53.80;;;;;;215012;1293;26783;-57
2022/01/15 18:53:33;;;;;;;17.10;8.90;;;22.40;54.40;;;;;;215143;1293;22730;-53
2022/01/15 18:58:40;;;;;;;23.50;10.20;;;22.20;53.70;;;;;;215203;1293;22584;-53
2022/01/15 19:03:44;;;;;;;22.40;9.30;;;22.20;53.60;;;;;;215112;1292;22657;-55
2022/01/15 19:08:50;;;;;;;35.50;12.80;;;22.30;52.80;;;;;;216006;1293;25281;-52
2022/01/15 19:13:56;;;;;;;26.10;11.50;;;22.20;52.50;;;;;;214670;1293;25567;-55
2022/01/15 19:19:03;;;;;;;25.80;12.40;;;22.10;53.50;;;;;;214946;1293;24470;-55
2022/01/15 19:24:07;;;;;;;29.10;11.80;;;22.00;53.30;;;;;;215076;1293;24283;-54
2022/01/15 19:29:11;;;;;;;20.40;11.70;;;22.10;52.50;;;;;;215168;1293;22746;-54
2022/01/15 19:34:17;;;;;;;31.90;12.20;;;22.10;52.70;;;;;;215069;1293;26510;-53
2022/01/15 19:39:27;;;;;;;27.50;11.00;;;22.00;53.90;;;;;;215197;1293;22599;-55
2022/01/15 19:44:42;;;;;;;24.20;11.60;;;22.00;53.50;;;;;;214953;1293;25271;-52
2022/01/15 19:49:59;;;;;;;22.40;10.50;;;22.10;53.80;;;;;;215396;1293;22590;-56
2022/01/15 19:55:27;;;;;;;31.60;11.20;;;22.40;53.90;;;;;;215122;1293;25319;-55
2022/01/15 20:00:34;;;;;;;16.50;9.90;;;22.70;53.20;;;;;;215127;1296;24572;-55
2022/01/15 20:05:40;;;;;;;20.60;9.40;;;22.90;52.00;;;;;;216996;1295;24000;-54
2022/01/15 20:10:44;;;;;;;18.90;9.70;;;22.80;52.10;;;;;;214792;1293;26650;-52
2022/01/15 20:15:54;;;;;;;22.00;10.70;;;22.60;52.70;;;;;;215510;1293;22572;-53
2022/01/15 20:20:59;;;;;;;21.10;11.10;;;22.60;53.00;;;;;;215345;1293;22632;-53
2022/01/15 20:26:13;;;;;;;24.80;12.00;;;22.50;53.00;;;;;;215359;1293;22594;-52
2022/01/15 20:31:21;;;;;;;19.30;11.30;;;22.60;53.10;;;;;;215064;1293;22788;-56
2022/01/15 20:36:25;;;;;;;23.80;10.40;;;22.50;53.00;;;;;;215103;1295;25550;-56
2022/01/15 20:41:31;;;;;;;24.30;11.70;;;22.60;53.00;;;;;;215404;1293;24243;-53
2022/01/15 20:46:36;;;;;;;25.50;11.70;;;22.50;53.20;;;;;;215271;1292;22575;-53
2022/01/15 20:51:41;;;;;;;22.70;11.70;;;22.40;53.50;;;;;;215184;1293;22584;-54
2022/01/15 20:56:46;;;;;;;35.50;12.00;;;22.40;54.30;;;;;;215749;1293;24266;-56
2022/01/15 21:01:50;;;;;;;26.70;11.10;;;22.30;54.40;;;;;;215072;1293;24763;-54
2022/01/15 21:06:54;;;;;;;23.90;12.60;;;22.30;54.60;;;;;;215102;1293;22918;-53
2022/01/15 21:11:57;;;;;;;25.60;13.10;;;22.30;54.10;;;;;;215761;1293;24286;-52
2022/01/15 21:17:05;;;;;;;26.90;12.50;;;22.50;54.00;;;;;;215331;1293;22895;-53
2022/01/15 21:22:10;;;;;;;25.70;12.90;;;22.50;53.50;;;;;;214942;1293;25365;-53
2022/01/15 21:27:19;;;;;;;24.90;12.70;;;22.40;54.00;;;;;;215166;1293;22595;-53
2022/01/15 21:32:26;;;;;;;22.80;12.70;;;22.40;53.80;;;;;;217703;1293;22596;-52
2022/01/15 21:37:37;;;;;;;23.40;13.40;;;22.60;53.60;;;;;;214867;1293;22578;-54
2022/01/15 21:42:48;;;;;;;25.70;13.00;;;23.00;52.60;;;;;;215142;1293;22738;-56
2022/01/15 21:47:54;;;;;;;27.20;12.90;;;23.30;51.90;;;;;;214951;1293;22594;-58
2022/01/15 21:52:59;;;;;;;24.70;13.60;;;23.50;51.30;;;;;;215102;1293;25572;-55
2022/01/15 21:58:04;;;;;;;22.40;13.30;;;23.50;51.50;;;;;;215221;1293;22698;-55
2022/01/15 22:03:09;;;;;;;26.80;14.10;;;23.50;52.80;;;;;;215064;1295;24317;-56
2022/01/15 22:08:13;;;;;;;33.30;14.90;;;23.50;51.40;;;;;;215291;1293;22656;-56
2022/01/15 22:13:24;;;;;;;27.30;14.20;;;23.50;52.70;;;;;;215065;1293;22603;-56
2022/01/15 22:18:31;;;;;;;25.50;14.20;;;23.50;52.20;;;;;;214921;1293;22636;-56
2022/01/15 22:23:35;;;;;;;25.10;14.00;;;23.50;52.30;;;;;;214658;1293;22576;-55
2022/01/15 22:29:12;;;;;;;26.50;14.50;;;23.50;52.70;;;;;;214695;1293;22699;-56
2022/01/15 22:34:38;;;;;;;;;;;23.50;52.40;;;;;;214927;1293;25555;-56
2022/01/15 22:39:56;;;;;;;22.80;14.40;;;23.50;52.30;;;;;;215106;1293;22635;-54
2022/01/15 22:45:09;;;;;;;27.60;14.30;;;23.50;52.50;;;;;;215084;1293;22629;-55
2022/01/15 22:50:18;;;;;;;24.50;14.00;;;23.50;52.00;;;;;;215061;1293;22787;-57
2022/01/15 22:55:28;;;;;;;23.90;14.00;;;23.60;51.90;;;;;;214851;1295;23970;-56
2022/01/15 23:00:54;;;;;;;24.80;15.00;;;23.60;52.00;;;;;;215289;1293;22589;-54
2022/01/15 23:06:07;;;;;;;22.90;14.70;;;23.60;51.50;;;;;;215413;1293;22573;-55
2022/01/15 23:11:25;;;;;;;23.90;14.90;;;23.60;51.40;;;;;;215086;1293;24447;-54
2022/01/15 23:16:36;;;;;;;23.40;14.50;;;23.60;51.30;;;;;;215091;1294;22594;-55
2022/01/15 23:21:44;;;;;;;23.50;15.10;;;23.60;51.30;;;;;;214878;1293;22652;-53
2022/01/15 23:26:55;;;;;;;20.10;14.50;;;23.60;51.10;;;;;;215335;1293;22632;-54
2022/01/15 23:32:03;;;;;;;24.70;15.70;;;23.60;51.10;;;;;;215241;1293;23229;-54
2022/01/15 23:37:13;;;;;;;24.00;14.80;;;23.60;50.90;;;;;;215396;1293;22851;-56
2022/01/15 23:42:23;;;;;;;23.30;15.30;;;23.70;51.00;;;;;;215109;1293;23040;-53
2022/01/15 23:47:27;;;;;;;23.40;15.20;;;23.50;51.30;;;;;;215272;1293;22682;-55
2022/01/15 23:52:31;;;;;;;25.10;15.80;;;23.40;51.60;;;;;;215265;1293;22582;-54
2022/01/15 23:57:39;;;;;;;25.70;15.90;;;23.40;51.20;;;;;;215348;1293;25617;-52
